sensor_id;sensor_type;location;lat;lon;timestamp;pressure;altitude;pressure_sealevel;temperature;humidity
59240;BME280;45010;53.640;10.578;2023-02-20T00:00:50;101303.00;;;24.80;32.25
59240;BME280;45010;53.640;10.578;2023-02-20T00:03:50;101306.69;;;24.79;32.27
59240;BME280;45010;53.640;10.578;2023-02-20T00:06:50;101298.91;;;24.78;32.34
59240;BME280;45010;53.640;10.578;2023-02-20T00:09:51;101289.94;;;24.72;32.32
59240;BME280;45010;53.640;10.578;2023-02-20T00:12:52;101268.69;;;24.58;32.35
59240;BME280;45010;53.640;10.578;2023-02-20T00:15:52;101280.91;;;24.73;32.25
59240;BME280;45010;53.640;10.578;2023-02-20T00:18:52;101275.97;;;24.70;32.36
59240;BME280;45010;53.640;10.578;2023-02-20T00:21:53;101271.69;;;24.69;32.27
59240;BME280;45010;53.640;10.578;2023-02-20T00:24:53;101263.09;;;24.67;32.42
59240;BME280;45010;53.640;10.578;2023-02-20T00:27:54;101251.81;;;24.65;32.71
59240;BME280;45010;53.640;10.578;2023-02-20T00:30:54;101250.19;;;24.64;32.46
59240;BME280;45010;53.640;10.578;2023-02-20T00:33:55;101237.31;;;24.61;32.40
59240;BME280;45010;53.640;10.578;2023-02-20T00:36:55;101214.97;;;24.55;32.42
59240;BME280;45010;53.640;10.578;2023-02-20T00:39:56;101208.38;;;24.57;32.40
59240;BME280;45010;53.640;10.578;2023-02-20T00:42:56;101205.13;;;24.55;32.51
59240;BME280;45010;53.640;10.578;2023-02-20T00:45:56;101182.97;;;24.55;32.60
59240;BME280;45010;53.640;10.578;2023-02-20T00:48:57;101177.84;;;24.53;32.36
59240;BME280;45010;53.640;10.578;2023-02-20T00:51:57;101178.91;;;24.52;32.06
59240;BME280;45010;53.640;10.578;2023-02-20T00:54:57;101169.28;;;24.51;32.51
59240;BME280;45010;53.640;10.578;2023-02-20T00:57:58;101144.91;;;24.48;32.65
59240;BME280;45010;53.640;10.578;2023-02-20T01:00:58;101159.28;;;24.47;32.41
59240;BME280;45010;53.640;10.578;2023-02-20T01:03:58;101159.50;;;24.45;32.53
59240;BME280;45010;53.640;10.578;2023-02-20T01:06:59;101132.25;;;24.43;32.56
59240;BME280;45010;53.640;10.578;2023-02-20T01:09:59;101150.28;;;24.41;32.52
59240;BME280;45010;53.640;10.578;2023-02-20T01:12:59;101156.88;;;24.38;32.60
59240;BME280;45010;53.640;10.578;2023-02-20T01:16:00;101124.63;;;24.21;32.45
59240;BME280;45010;53.640;10.578;2023-02-20T01:19:00;101154.06;;;24.33;32.79
59240;BME280;45010;53.640;10.578;2023-02-20T01:22:00;101153.25;;;24.33;32.58
59240;BME280;45010;53.640;10.578;2023-02-20T01:25:04;101146.72;;;24.28;32.52
59240;BME280;45010;53.640;10.578;2023-02-20T01:28:04;101132.78;;;24.26;32.59
59240;BME280;45010;53.640;10.578;2023-02-20T01:31:06;101138.13;;;24.26;32.50
59240;BME280;45010;53.640;10.578;2023-02-20T01:34:06;101136.72;;;24.24;32.73
59240;BME280;45010;53.640;10.578;2023-02-20T01:37:06;101147.59;;;24.22;32.64
59240;BME280;45010;53.640;10.578;2023-02-20T01:40:09;101136.34;;;24.20;32.68
59240;BME280;45010;53.640;10.578;2023-02-20T01:43:10;101132.03;;;24.19;32.93
59240;BME280;45010;53.640;10.578;2023-02-20T01:52:35;101098.28;;;24.13;32.73
59240;BME280;45010;53.640;10.578;2023-02-20T01:55:47;101087.00;;;24.11;32.83
59240;BME280;45010;53.640;10.578;2023-02-20T01:58:50;101069.38;;;24.10;32.93
59240;BME280;45010;53.640;10.578;2023-02-20T02:01:51;101066.94;;;24.08;32.69
59240;BME280;45010;53.640;10.578;2023-02-20T02:04:51;101055.66;;;24.06;32.78
59240;BME280;45010;53.640;10.578;2023-02-20T02:07:52;101045.22;;;24.04;32.96
59240;BME280;45010;53.640;10.578;2023-02-20T02:11:04;101036.63;;;24.02;32.92
59240;BME280;45010;53.640;10.578;2023-02-20T02:14:06;101029.69;;;24.01;32.72
59240;BME280;45010;53.640;10.578;2023-02-20T02:17:21;101023.63;;;23.94;32.96
59240;BME280;45010;53.640;10.578;2023-02-20T02:20:35;101012.50;;;23.97;32.92
59240;BME280;45010;53.640;10.578;2023-02-20T02:30:36;101016.66;;;23.93;32.80
59240;BME280;45010;53.640;10.578;2023-02-20T02:37:33;100986.00;;;23.84;33.08
59240;BME280;45010;53.640;10.578;2023-02-20T02:47:17;100991.31;;;23.84;33.09
59240;BME280;45010;53.640;10.578;2023-02-20T02:50:35;100983.75;;;23.81;32.96
59240;BME280;45010;53.640;10.578;2023-02-20T02:53:37;100982.13;;;23.80;33.11
59240;BME280;45010;53.640;10.578;2023-02-20T02:56:44;100958.84;;;23.75;32.96
59240;BME280;45010;53.640;10.578;2023-02-20T02:59:46;100959.41;;;23.77;33.12
59240;BME280;45010;53.640;10.578;2023-02-20T03:06:16;100952.69;;;23.74;33.10
59240;BME280;45010;53.640;10.578;2023-02-20T03:09:26;100953.72;;;23.73;33.16
59240;BME280;45010;53.640;10.578;2023-02-20T03:12:28;100956.59;;;23.72;33.12
59240;BME280;45010;53.640;10.578;2023-02-20T03:15:35;100940.69;;;23.65;33.09
59240;BME280;45010;53.640;10.578;2023-02-20T03:18:40;100948.84;;;23.70;33.26
59240;BME280;45010;53.640;10.578;2023-02-20T03:21:43;100941.13;;;23.62;33.05
59240;BME280;45010;53.640;10.578;2023-02-20T03:24:49;100947.50;;;23.61;33.23
59240;BME280;45010;53.640;10.578;2023-02-20T03:28:23;100953.84;;;23.60;33.57
59240;BME280;45010;53.640;10.578;2023-02-20T03:31:29;100951.78;;;23.62;33.14
59240;BME280;45010;53.640;10.578;2023-02-20T03:34:32;100931.31;;;23.62;33.21
59240;BME280;45010;53.640;10.578;2023-02-20T03:37:52;100932.19;;;23.56;33.19
59240;BME280;45010;53.640;10.578;2023-02-20T03:41:13;100943.19;;;23.60;33.19
59240;BME280;45010;53.640;10.578;2023-02-20T03:44:33;100946.91;;;23.59;33.18
59240;BME280;45010;53.640;10.578;2023-02-20T03:47:36;100934.47;;;23.53;33.20
59240;BME280;45010;53.640;10.578;2023-02-20T03:50:38;100942.00;;;23.56;33.62
59240;BME280;45010;53.640;10.578;2023-02-20T03:53:58;100932.22;;;23.49;33.28
59240;BME280;45010;53.640;10.578;2023-02-20T03:57:09;100926.09;;;23.49;33.25
59240;BME280;45010;53.640;10.578;2023-02-20T04:00:32;100921.81;;;23.48;33.50
59240;BME280;45010;53.640;10.578;2023-02-20T04:03:37;100931.81;;;23.53;33.43
59240;BME280;45010;53.640;10.578;2023-02-20T04:06:39;100902.88;;;23.37;33.52
59240;BME280;45010;53.640;10.578;2023-02-20T04:09:43;100920.53;;;23.50;33.65
59240;BME280;45010;53.640;10.578;2023-02-20T04:12:46;100912.56;;;23.50;33.29
59240;BME280;45010;53.640;10.578;2023-02-20T04:15:48;100916.25;;;23.49;33.59
59240;BME280;45010;53.640;10.578;2023-02-20T04:18:49;100914.63;;;23.48;33.77
59240;BME280;45010;53.640;10.578;2023-02-20T04:21:53;100895.84;;;23.43;33.50
59240;BME280;45010;53.640;10.578;2023-02-20T04:25:00;100872.25;;;23.47;33.43
59240;BME280;45010;53.640;10.578;2023-02-20T04:28:03;100845.19;;;23.31;33.42
59240;BME280;45010;53.640;10.578;2023-02-20T04:31:04;100865.97;;;23.41;33.52
59240;BME280;45010;53.640;10.578;2023-02-20T04:34:04;100869.84;;;23.45;33.30
59240;BME280;45010;53.640;10.578;2023-02-20T04:37:12;100859.03;;;23.40;33.74
59240;BME280;45010;53.640;10.578;2023-02-20T04:40:15;100865.53;;;23.44;33.45
59240;BME280;45010;53.640;10.578;2023-02-20T04:43:16;100861.84;;;23.45;33.59
59240;BME280;45010;53.640;10.578;2023-02-20T04:46:16;100861.84;;;23.45;33.46
59240;BME280;45010;53.640;10.578;2023-02-20T04:49:16;100849.56;;;23.44;33.60
59240;BME280;45010;53.640;10.578;2023-02-20T04:52:17;100833.59;;;23.44;33.71
59240;BME280;45010;53.640;10.578;2023-02-20T04:55:17;100829.09;;;23.45;33.53
59240;BME280;45010;53.640;10.578;2023-02-20T04:58:19;100821.31;;;23.43;33.50
59240;BME280;45010;53.640;10.578;2023-02-20T05:01:19;100817.63;;;23.44;33.87
59240;BME280;45010;53.640;10.578;2023-02-20T05:04:20;100813.78;;;23.40;33.77
59240;BME280;45010;53.640;10.578;2023-02-20T05:07:21;100829.31;;;23.43;33.82
59240;BME280;45010;53.640;10.578;2023-02-20T05:10:22;100810.50;;;23.38;33.76
59240;BME280;45010;53.640;10.578;2023-02-20T05:13:23;100807.44;;;23.41;33.52
59240;BME280;45010;53.640;10.578;2023-02-20T05:16:23;100805.81;;;23.40;33.84
59240;BME280;45010;53.640;10.578;2023-02-20T05:19:23;100807.44;;;23.41;33.59
59240;BME280;45010;53.640;10.578;2023-02-20T05:22:23;100792.50;;;23.40;33.74
59240;BME280;45010;53.640;10.578;2023-02-20T05:25:24;100788.78;;;23.41;33.76
59240;BME280;45010;53.640;10.578;2023-02-20T05:28:24;100780.81;;;23.41;34.00
59240;BME280;45010;53.640;10.578;2023-02-20T05:31:24;100784.50;;;23.40;33.82
59240;BME280;45010;53.640;10.578;2023-02-20T05:34:25;100777.56;;;23.39;33.62
59240;BME280;45010;53.640;10.578;2023-02-20T05:37:26;100773.03;;;23.40;33.80
59240;BME280;45010;53.640;10.578;2023-02-20T05:40:27;100762.59;;;23.38;33.45
59240;BME280;45010;53.640;10.578;2023-02-20T05:43:27;100759.94;;;23.38;33.64
59240;BME280;45010;53.640;10.578;2023-02-20T05:46:27;100734.97;;;23.39;33.77
59240;BME280;45010;53.640;10.578;2023-02-20T05:49:28;100733.34;;;23.38;33.82
59240;BME280;45010;53.640;10.578;2023-02-20T05:52:28;100725.22;;;23.33;33.59
59240;BME280;45010;53.640;10.578;2023-02-20T05:55:29;100737.84;;;23.37;33.68
59240;BME280;45010;53.640;10.578;2023-02-20T05:58:30;100733.34;;;23.38;33.66
59240;BME280;45010;53.640;10.578;2023-02-20T06:01:31;100723.59;;;23.32;33.65
59240;BME280;45010;53.640;10.578;2023-02-20T06:04:31;100715.75;;;23.37;33.64
59240;BME280;45010;53.640;10.578;2023-02-20T06:07:32;100706.97;;;23.36;34.00
59240;BME280;45010;53.640;10.578;2023-02-20T06:10:32;100703.47;;;23.36;33.60
59240;BME280;45010;53.640;10.578;2023-02-20T06:13:32;100698.16;;;23.36;33.89
59240;BME280;45010;53.640;10.578;2023-02-20T06:16:34;100678.03;;;23.21;33.68
59240;BME280;45010;53.640;10.578;2023-02-20T06:19:34;100697.34;;;23.35;34.44
59240;BME280;45010;53.640;10.578;2023-02-20T06:22:34;100687.50;;;23.36;33.56
59240;BME280;45010;53.640;10.578;2023-02-20T06:25:35;100679.38;;;23.31;33.72
59240;BME280;45010;53.640;10.578;2023-02-20T06:28:36;100657.78;;;23.20;33.62
59240;BME280;45010;53.640;10.578;2023-02-20T06:31:37;100684.28;;;23.34;33.78
59240;BME280;45010;53.640;10.578;2023-02-20T06:34:37;100688.78;;;23.33;33.49
59240;BME280;45010;53.640;10.578;2023-02-20T06:37:37;100684.28;;;23.34;33.66
59240;BME280;45010;53.640;10.578;2023-02-20T06:40:38;100677.38;;;23.26;33.84
59240;BME280;45010;53.640;10.578;2023-02-20T06:43:38;100677.34;;;23.33;33.69
59240;BME280;45010;53.640;10.578;2023-02-20T06:46:39;100689.59;;;23.34;33.72
59240;BME280;45010;53.640;10.578;2023-02-20T06:49:39;100687.97;;;23.33;34.18
59240;BME280;45010;53.640;10.578;2023-02-20T06:52:40;100693.31;;;23.33;34.13
59240;BME280;45010;53.640;10.578;2023-02-20T06:55:41;100701.28;;;23.33;34.01
59240;BME280;45010;53.640;10.578;2023-02-20T06:58:41;100692.47;;;23.32;33.76
59240;BME280;45010;53.640;10.578;2023-02-20T07:01:42;100693.31;;;23.33;34.19
59240;BME280;45010;53.640;10.578;2023-02-20T07:04:46;100687.16;;;23.32;34.02
59240;BME280;45010;53.640;10.578;2023-02-20T07:07:48;100696.97;;;23.32;33.87
59240;BME280;45010;53.640;10.578;2023-02-20T07:10:48;100696.19;;;23.31;34.25
59240;BME280;45010;53.640;10.578;2023-02-20T07:13:49;100674.19;;;23.17;34.51
59240;BME280;45010;53.640;10.578;2023-02-20T07:16:50;100690.84;;;23.31;34.75
59240;BME280;45010;53.640;10.578;2023-02-20T07:19:50;100689.59;;;23.34;34.76
59240;BME280;45010;53.640;10.578;2023-02-20T07:22:51;100688.38;;;23.30;35.19
59240;BME280;45010;53.640;10.578;2023-02-20T07:25:53;100700.47;;;23.32;34.96
59240;BME280;45010;53.640;10.578;2023-02-20T07:28:54;100703.03;;;23.39;34.74
59240;BME280;45010;53.640;10.578;2023-02-20T07:31:57;100676.88;;;23.36;34.82
59240;BME280;45010;53.640;10.578;2023-02-20T07:34:58;100683.75;;;23.44;35.05
59240;BME280;45010;53.640;10.578;2023-02-20T07:37:58;100677.16;;;23.46;34.92
59240;BME280;45010;53.640;10.578;2023-02-20T07:40:58;100694.53;;;23.49;34.94
59240;BME280;45010;53.640;10.578;2023-02-20T07:43:59;100695.94;;;23.51;34.80
59240;BME280;45010;53.640;10.578;2023-02-20T07:46:59;100690.16;;;23.55;34.65
59240;BME280;45010;53.640;10.578;2023-02-20T07:49:59;100666.75;;;23.57;34.70
59240;BME280;45010;53.640;10.578;2023-02-20T07:53:00;100646.47;;;23.44;34.70
59240;BME280;45010;53.640;10.578;2023-02-20T07:56:00;100664.25;;;23.62;34.79
59240;BME280;45010;53.640;10.578;2023-02-20T07:59:01;100639.78;;;23.53;34.55
59240;BME280;45010;53.640;10.578;2023-02-20T08:02:01;100648.72;;;23.59;34.83
59240;BME280;45010;53.640;10.578;2023-02-20T08:05:02;100664.97;;;23.69;34.32
59240;BME280;45010;53.640;10.578;2023-02-20T08:08:02;100664.53;;;23.72;34.55
59240;BME280;45010;53.640;10.578;2023-02-20T08:11:04;100650.63;;;23.70;34.88
59240;BME280;45010;53.640;10.578;2023-02-20T08:14:05;100646.94;;;23.71;34.45
59240;BME280;45010;53.640;10.578;2023-02-20T08:17:06;100627.72;;;23.69;34.52
59240;BME280;45010;53.640;10.578;2023-02-20T08:20:08;100636.53;;;23.82;34.61
59240;BME280;45010;53.640;10.578;2023-02-20T08:23:19;100616.16;;;23.75;34.27
59240;BME280;45010;53.640;10.578;2023-02-20T08:26:20;100614.97;;;23.71;34.26
59240;BME280;45010;53.640;10.578;2023-02-20T08:29:20;100632.97;;;23.88;33.92
59240;BME280;45010;53.640;10.578;2023-02-20T08:32:21;100614.75;;;23.85;33.92
59240;BME280;45010;53.640;10.578;2023-02-20T08:35:22;100606.06;;;23.77;34.15
59240;BME280;45010;53.640;10.578;2023-02-20T08:38:31;100626.13;;;23.92;34.05
59240;BME280;45010;53.640;10.578;2023-02-20T08:41:33;100601.13;;;23.93;33.85
59240;BME280;45010;53.640;10.578;2023-02-20T08:44:33;100605.41;;;23.94;33.86
59240;BME280;45010;53.640;10.578;2023-02-20T08:47:34;100606.47;;;23.93;33.90
59240;BME280;45010;53.640;10.578;2023-02-20T08:50:34;100576.22;;;23.87;34.05
59240;BME280;45010;53.640;10.578;2023-02-20T08:53:36;100591.03;;;23.95;33.91
59240;BME280;45010;53.640;10.578;2023-02-20T08:56:38;100584.78;;;23.89;33.93
59240;BME280;45010;53.640;10.578;2023-02-20T08:59:39;100585.50;;;23.97;33.64
59240;BME280;45010;53.640;10.578;2023-02-20T09:02:40;100587.13;;;23.98;33.90
59240;BME280;45010;53.640;10.578;2023-02-20T09:05:42;100569.16;;;23.93;34.06
59240;BME280;45010;53.640;10.578;2023-02-20T09:08:42;100567.19;;;24.00;34.33
59240;BME280;45010;53.640;10.578;2023-02-20T09:11:43;100553.19;;;23.93;34.15
59240;BME280;45010;53.640;10.578;2023-02-20T09:14:43;100548.91;;;24.04;34.30
59240;BME280;45010;53.640;10.578;2023-02-20T09:17:46;100552.25;;;23.99;34.31
59240;BME280;45010;53.640;10.578;2023-02-20T09:20:47;100554.22;;;24.04;34.30
59240;BME280;45010;53.640;10.578;2023-02-20T09:23:47;100561.53;;;24.09;34.21
59240;BME280;45010;53.640;10.578;2023-02-20T09:26:48;100558.88;;;24.09;34.07
59240;BME280;45010;53.640;10.578;2023-02-20T09:29:48;100549.84;;;24.10;33.86
59240;BME280;45010;53.640;10.578;2023-02-20T09:32:49;100544.38;;;24.04;33.97
59240;BME280;45010;53.640;10.578;2023-02-20T09:35:50;100545.56;;;24.09;33.95
59240;BME280;45010;53.640;10.578;2023-02-20T09:38:50;100545.56;;;24.09;33.95
59240;BME280;45010;53.640;10.578;2023-02-20T09:45:17;100546.38;;;24.09;33.56
59240;BME280;45010;53.640;10.578;2023-02-20T09:48:30;100513.81;;;23.95;33.43
59240;BME280;45010;53.640;10.578;2023-02-20T09:51:38;100522.25;;;24.04;33.53
59240;BME280;45010;53.640;10.578;2023-02-20T09:54:42;100505.94;;;24.00;33.51
59240;BME280;45010;53.640;10.578;2023-02-20T09:57:48;100518.09;;;24.08;33.59
59240;BME280;45010;53.640;10.578;2023-02-20T10:00:49;100516.47;;;24.07;33.34
59240;BME280;45010;53.640;10.578;2023-02-20T10:07:03;100483.34;;;23.91;33.54
59240;BME280;45010;53.640;10.578;2023-02-20T10:10:31;100521.91;;;24.00;33.40
59240;BME280;45010;53.640;10.578;2023-02-20T10:14:11;100529.19;;;24.05;33.25
59240;BME280;45010;53.640;10.578;2023-02-20T10:17:22;100509.41;;;23.89;33.50
59240;BME280;45010;53.640;10.578;2023-02-20T10:23:52;100519.81;;;24.02;33.11
59240;BME280;45010;53.640;10.578;2023-02-20T10:30:38;100519.25;;;24.00;33.25
59240;BME280;45010;53.640;10.578;2023-02-20T10:33:53;100535.81;;;24.02;33.47
59240;BME280;45010;53.640;10.578;2023-02-20T10:37:02;100519.91;;;23.96;33.32
59240;BME280;45010;53.640;10.578;2023-02-20T10:40:13;100525.63;;;23.99;33.43
59240;BME280;45010;53.640;10.578;2023-02-20T10:43:45;100514.97;;;23.99;33.29
59240;BME280;45010;53.640;10.578;2023-02-20T10:47:00;100513.31;;;23.98;33.49
59240;BME280;45010;53.640;10.578;2023-02-20T10:50:11;100514.03;;;23.94;33.28
59240;BME280;45010;53.640;10.578;2023-02-20T10:56:40;100534.63;;;23.98;33.62
59240;BME280;45010;53.640;10.578;2023-02-20T11:00:15;100525.63;;;23.99;33.78
59240;BME280;45010;53.640;10.578;2023-02-20T11:03:22;100523.53;;;24.01;34.10
59240;BME280;45010;53.640;10.578;2023-02-20T11:06:33;100535.56;;;24.04;33.80
59240;BME280;45010;53.640;10.578;2023-02-20T11:09:35;100510.78;;;24.03;34.17
59240;BME280;45010;53.640;10.578;2023-02-20T11:12:42;100496.91;;;24.01;34.15
59240;BME280;45010;53.640;10.578;2023-02-20T11:15:45;100491.56;;;24.01;34.00
59240;BME280;45010;53.640;10.578;2023-02-20T11:18:46;100496.78;;;24.08;34.12
59240;BME280;45010;53.640;10.578;2023-02-20T11:21:49;100492.72;;;24.05;34.06
59240;BME280;45010;53.640;10.578;2023-02-20T11:24:50;100500.03;;;24.10;34.08
59240;BME280;45010;53.640;10.578;2023-02-20T11:27:53;100499.66;;;24.07;33.68
59240;BME280;45010;53.640;10.578;2023-02-20T11:31:04;100500.38;;;24.14;33.92
59240;BME280;45010;53.640;10.578;2023-02-20T11:34:17;100487.63;;;24.16;33.90
59240;BME280;45010;53.640;10.578;2023-02-20T11:37:18;100464.03;;;24.08;34.01
59240;BME280;45010;53.640;10.578;2023-02-20T11:40:31;100466.91;;;24.18;33.67
59240;BME280;45010;53.640;10.578;2023-02-20T11:43:34;100471.19;;;24.19;33.80
59240;BME280;45010;53.640;10.578;2023-02-20T11:46:36;100465.84;;;24.19;33.69
59240;BME280;45010;53.640;10.578;2023-02-20T11:49:36;100462.97;;;24.21;33.93
59240;BME280;45010;53.640;10.578;2023-02-20T11:52:37;100461.66;;;24.23;33.68
59240;BME280;45010;53.640;10.578;2023-02-20T11:55:38;100461.66;;;24.23;33.71
59240;BME280;45010;53.640;10.578;2023-02-20T11:58:40;100445.22;;;24.26;33.53
59240;BME280;45010;53.640;10.578;2023-02-20T12:01:40;100444.06;;;24.22;33.59
59240;BME280;45010;53.640;10.578;2023-02-20T12:10:52;100439.88;;;24.26;33.28
59240;BME280;45010;53.640;10.578;2023-02-20T12:13:57;100422.06;;;24.27;33.39
59240;BME280;45010;53.640;10.578;2023-02-20T12:17:08;100418.56;;;24.26;33.28
59240;BME280;45010;53.640;10.578;2023-02-20T12:20:24;100421.34;;;24.31;33.54
59240;BME280;45010;53.640;10.578;2023-02-20T12:23:45;100416.00;;;24.31;33.32
59240;BME280;45010;53.640;10.578;2023-02-20T12:26:52;100400.16;;;24.25;33.44
59240;BME280;45010;53.640;10.578;2023-02-20T12:40:40;100405.34;;;24.31;34.11
59240;BME280;45010;53.640;10.578;2023-02-20T12:50:17;100401.16;;;24.36;33.94
59240;BME280;45010;53.640;10.578;2023-02-20T12:53:33;100387.25;;;24.34;33.94
59240;BME280;45010;53.640;10.578;2023-02-20T12:57:01;100392.13;;;24.37;34.08
59240;BME280;45010;53.640;10.578;2023-02-20T13:00:29;100398.41;;;24.30;34.15
59240;BME280;45010;53.640;10.578;2023-02-20T13:06:46;100407.84;;;24.38;34.13
59240;BME280;45010;53.640;10.578;2023-02-20T13:10:23;100411.00;;;24.35;34.24
59240;BME280;45010;53.640;10.578;2023-02-20T13:13:52;100424.22;;;24.42;34.07
59240;BME280;45010;53.640;10.578;2023-02-20T13:16:57;100411.69;;;24.42;34.04
59240;BME280;45010;53.640;10.578;2023-02-20T13:20:23;100410.88;;;24.42;33.97
59240;BME280;45010;53.640;10.578;2023-02-20T13:23:28;100405.56;;;24.42;33.89
59240;BME280;45010;53.640;10.578;2023-02-20T13:29:37;100395.34;;;24.39;33.93
59240;BME280;45010;53.640;10.578;2023-02-20T13:32:38;100416.78;;;24.44;34.09
59240;BME280;45010;53.640;10.578;2023-02-20T13:35:46;100408.78;;;24.44;34.06
59240;BME280;45010;53.640;10.578;2023-02-20T13:42:29;100421.06;;;24.45;34.26
59240;BME280;45010;53.640;10.578;2023-02-20T13:45:38;100406.94;;;24.44;34.02
59240;BME280;45010;53.640;10.578;2023-02-20T13:48:48;100399.72;;;24.45;33.93
59240;BME280;45010;53.640;10.578;2023-02-20T13:51:49;100408.28;;;24.47;34.04
59240;BME280;45010;53.640;10.578;2023-02-20T13:54:49;100401.94;;;24.48;33.97
59240;BME280;45010;53.640;10.578;2023-02-20T13:57:56;100406.44;;;24.48;33.95
59240;BME280;45010;53.640;10.578;2023-02-20T14:01:01;100399.28;;;24.48;33.82
59240;BME280;45010;53.640;10.578;2023-02-20T14:04:04;100399.16;;;24.43;33.88
59240;BME280;45010;53.640;10.578;2023-02-20T14:07:05;100397.63;;;24.47;33.76
59240;BME280;45010;53.640;10.578;2023-02-20T14:10:14;100378.69;;;24.31;33.70
59240;BME280;45010;53.640;10.578;2023-02-20T14:13:20;100403.22;;;24.45;33.60
59240;BME280;45010;53.640;10.578;2023-02-20T14:19:38;100400.78;;;24.44;33.69
59240;BME280;45010;53.640;10.578;2023-02-20T14:22:40;100398.94;;;24.44;33.61
59240;BME280;45010;53.640;10.578;2023-02-20T14:25:41;100407.16;;;24.43;33.68
59240;BME280;45010;53.640;10.578;2023-02-20T14:28:44;100388.41;;;24.38;33.66
59240;BME280;45010;53.640;10.578;2023-02-20T14:31:45;100387.91;;;24.41;33.49
59240;BME280;45010;53.640;10.578;2023-02-20T14:35:15;100388.75;;;24.41;33.73
59240;BME280;45010;53.640;10.578;2023-02-20T14:38:27;100386.31;;;24.40;33.44
59240;BME280;45010;53.640;10.578;2023-02-20T14:41:31;100390.84;;;24.39;33.51
59240;BME280;45010;53.640;10.578;2023-02-20T14:44:32;100384.69;;;24.39;33.45
59240;BME280;45010;53.640;10.578;2023-02-20T14:47:32;100393.75;;;24.38;33.64
59240;BME280;45010;53.640;10.578;2023-02-20T14:50:35;100388.31;;;24.33;33.76
59240;BME280;45010;53.640;10.578;2023-02-20T14:53:35;100405.44;;;24.37;33.66
59240;BME280;45010;53.640;10.578;2023-02-20T14:56:36;100394.19;;;24.35;33.75
59240;BME280;45010;53.640;10.578;2023-02-20T14:59:37;100402.13;;;24.29;33.75
59240;BME280;45010;53.640;10.578;2023-02-20T15:02:44;100409.41;;;24.34;33.89
59240;BME280;45010;53.640;10.578;2023-02-20T15:05:46;100380.59;;;24.19;33.61
59240;BME280;45010;53.640;10.578;2023-02-20T15:08:55;100386.59;;;24.26;33.75
59240;BME280;45010;53.640;10.578;2023-02-20T15:11:57;100398.41;;;24.30;33.71
59240;BME280;45010;53.640;10.578;2023-02-20T15:15:04;100402.81;;;24.25;33.72
59240;BME280;45010;53.640;10.578;2023-02-20T15:18:08;100418.09;;;24.29;33.54
59240;BME280;45010;53.640;10.578;2023-02-20T15:21:11;100411.03;;;24.23;33.77
59240;BME280;45010;53.640;10.578;2023-02-20T15:27:24;100402.13;;;24.29;33.74
59240;BME280;45010;53.640;10.578;2023-02-20T15:30:27;100415.09;;;24.26;34.11
59240;BME280;45010;53.640;10.578;2023-02-20T15:33:30;100406.75;;;24.22;34.28
59240;BME280;45010;53.640;10.578;2023-02-20T15:36:30;100410.56;;;24.26;34.46
59240;BME280;45010;53.640;10.578;2023-02-20T15:39:38;100421.78;;;24.28;34.44
59240;BME280;45010;53.640;10.578;2023-02-20T15:42:38;100421.78;;;24.28;34.42
59240;BME280;45010;53.640;10.578;2023-02-20T15:45:39;100412.91;;;24.23;34.44
59240;BME280;45010;53.640;10.578;2023-02-20T15:48:40;100426.09;;;24.29;34.40
59240;BME280;45010;53.640;10.578;2023-02-20T15:51:40;100425.06;;;24.30;34.51
59240;BME280;45010;53.640;10.578;2023-02-20T15:54:45;100399.59;;;24.23;34.62
59240;BME280;45010;53.640;10.578;2023-02-20T15:57:47;100418.56;;;24.26;34.37
59240;BME280;45010;53.640;10.578;2023-02-20T16:00:48;100405.47;;;24.25;34.34
59240;BME280;45010;53.640;10.578;2023-02-20T16:03:50;100412.28;;;24.33;34.76
59240;BME280;45010;53.640;10.578;2023-02-20T16:06:50;100426.19;;;24.35;34.70
59240;BME280;45010;53.640;10.578;2023-02-20T16:09:51;100419.22;;;24.34;34.65
59240;BME280;45010;53.640;10.578;2023-02-20T16:12:52;100421.78;;;24.28;34.48
59240;BME280;45010;53.640;10.578;2023-02-20T16:15:54;100400.31;;;24.18;34.59
59240;BME280;45010;53.640;10.578;2023-02-20T16:18:54;100413.91;;;24.34;34.39
59240;BME280;45010;53.640;10.578;2023-02-20T16:21:55;100423.28;;;24.36;34.52
59240;BME280;45010;53.640;10.578;2023-02-20T16:24:55;100420.38;;;24.38;34.51
59240;BME280;45010;53.640;10.578;2023-02-20T16:27:55;100410.53;;;24.38;34.33
59240;BME280;45010;53.640;10.578;2023-02-20T16:30:56;100409.16;;;24.36;34.61
59240;BME280;45010;53.640;10.578;2023-02-20T16:33:56;100420.94;;;24.40;34.66
59240;BME280;45010;53.640;10.578;2023-02-20T16:36:57;100411.84;;;24.36;34.61
59240;BME280;45010;53.640;10.578;2023-02-20T16:39:58;100425.22;;;24.41;34.87
59240;BME280;45010;53.640;10.578;2023-02-20T16:42:58;100420.94;;;24.40;34.50
59240;BME280;45010;53.640;10.578;2023-02-20T16:45:58;100421.53;;;24.42;34.49
59240;BME280;45010;53.640;10.578;2023-02-20T16:48:59;100423.16;;;24.43;34.21
59240;BME280;45010;53.640;10.578;2023-02-20T16:51:59;100413.28;;;24.43;34.37
59240;BME280;45010;53.640;10.578;2023-02-20T16:55:01;100394.13;;;24.29;34.40
59240;BME280;45010;53.640;10.578;2023-02-20T16:58:04;100400.13;;;24.37;34.52
59240;BME280;45010;53.640;10.578;2023-02-20T17:01:05;100422.66;;;24.46;34.57
59240;BME280;45010;53.640;10.578;2023-02-20T17:04:05;100416.28;;;24.47;34.26
59240;BME280;45010;53.640;10.578;2023-02-20T17:07:08;100430.44;;;24.48;34.32
59240;BME280;45010;53.640;10.578;2023-02-20T17:10:09;100438.19;;;24.49;34.20
59240;BME280;45010;53.640;10.578;2023-02-20T17:13:10;100443.53;;;24.49;34.27